Disclaimer

Please do not use the information listed here in-flight or in-navigation, as they are not provided to us by the airports but are provided by volunteers, so they might be outdated.

Search


Regions


Airport information page

Radio informations:
Tower (TWR) - 118.7 MHz
Ground (GND) - 120.65 MHz
JUNGWON DEP - 134.0 MHz
JUNGWON APP - 134.0 MHz
BRICKWALL - 120.0 MHz

Airport informations:
Latitude: 36° 42' 59.76" N
Longitude: 127° 29' 56.83" E
Elevation: 191 feet - 58 meters
Operating hours: N/A
Operating agency: Military-civil joint use airport
Timezone: UTC+9
Fuel: JP-8, SemiKeroscene MIL Spec T-83133, without icing inhibitor

Aviation Gasoline (AVGAS), octane unknown.

Runway information:
06R/24L - 9000 x 150 feet< - >2743 x 46 meters
06L/24R - 9000 x 200 feet< - >2743 x 61 meters

Recent METARs:
RKTU 211600Z 09001KT 8000 FEW030 01/00 Q1024
RKTU 211700Z 34001KT 6000 FEW005 FEW030 00/00 Q1024
RKTU 211720Z 03001KT 1600 BR FEW000 SCT005 SCT030 00/00 Q1024 RMK FG FEW000

Airport on the map: